Terminal Aerodrome Forecast
Issued by NWS

Home | Current Version | Previous Version | Text Only | Print | Product List | Glossary On
Versions: 1 2 3 4 5 6 7 8 9 10 11 12 13 14 15 16 17 18 19 20 21 22 23 24 25 26 27 28 29 30 31 32 33 34 35 36 37 38 39 40 41 42 43 44 45 46
000
FTUS46 KSGX 220209 AAA
TAFSBD
TAF AMD
KSBD 220209Z 2202/2224 25010G17KT 6SM HZ FEW050
     FM220400 26005KT P6SM SCT025
     FM221700 36008KT P6SM SCT040
     FM222100 29012KT P6SM SKC=

USA.gov is the U.S. government's official web portal to all federal, state and local government web resources and services.